sensor_id;sensor_type;location;lat;lon;timestamp;P1;durP1;ratioP1;P2;durP2;ratioP2
64520;SDS011;50896;46.714;17.322;2022-07-26T00:01:18;9.25;;;6.20;;
64520;SDS011;50896;46.714;17.322;2022-07-26T00:03:47;7.32;;;6.15;;
64520;SDS011;50896;46.714;17.322;2022-07-26T00:06:15;8.13;;;5.82;;
64520;SDS011;50896;46.714;17.322;2022-07-26T00:08:44;8.63;;;6.43;;
64520;SDS011;50896;46.714;17.322;2022-07-26T00:11:12;8.25;;;6.15;;
64520;SDS011;50896;46.714;17.322;2022-07-26T00:13:38;7.30;;;6.50;;
64520;SDS011;50896;46.714;17.322;2022-07-26T00:16:05;9.13;;;6.38;;
64520;SDS011;50896;46.714;17.322;2022-07-26T00:18:32;6.22;;;5.63;;
64520;SDS011;50896;46.714;17.322;2022-07-26T00:20:59;8.23;;;6.10;;
64520;SDS011;50896;46.714;17.322;2022-07-26T00:23:26;6.47;;;5.88;;
64520;SDS011;50896;46.714;17.322;2022-07-26T00:25:54;7.97;;;6.25;;
64520;SDS011;50896;46.714;17.322;2022-07-26T00:28:21;8.73;;;5.90;;
64520;SDS011;50896;46.714;17.322;2022-07-26T00:30:48;8.38;;;5.85;;
64520;SDS011;50896;46.714;17.322;2022-07-26T00:33:15;6.63;;;6.03;;
64520;SDS011;50896;46.714;17.322;2022-07-26T00:35:42;7.13;;;6.43;;
64520;SDS011;50896;46.714;17.322;2022-07-26T00:38:08;7.45;;;6.00;;
64520;SDS011;50896;46.714;17.322;2022-07-26T00:40:35;6.93;;;6.22;;
64520;SDS011;50896;46.714;17.322;2022-07-26T00:43:02;7.80;;;5.90;;
64520;SDS011;50896;46.714;17.322;2022-07-26T00:45:29;7.30;;;5.68;;
64520;SDS011;50896;46.714;17.322;2022-07-26T00:47:56;7.80;;;6.18;;
64520;SDS011;50896;46.714;17.322;2022-07-26T00:50:23;7.93;;;5.53;;
64520;SDS011;50896;46.714;17.322;2022-07-26T00:52:50;8.32;;;6.00;;
64520;SDS011;50896;46.714;17.322;2022-07-26T00:55:17;8.52;;;6.13;;
64520;SDS011;50896;46.714;17.322;2022-07-26T00:57:44;8.40;;;5.82;;
64520;SDS011;50896;46.714;17.322;2022-07-26T01:00:13;8.13;;;6.55;;
64520;SDS011;50896;46.714;17.322;2022-07-26T01:02:45;6.88;;;6.28;;
64520;SDS011;50896;46.714;17.322;2022-07-26T01:05:12;7.25;;;6.07;;
64520;SDS011;50896;46.714;17.322;2022-07-26T01:07:39;6.40;;;5.75;;
64520;SDS011;50896;46.714;17.322;2022-07-26T01:10:08;7.15;;;6.45;;
64520;SDS011;50896;46.714;17.322;2022-07-26T01:12:39;9.88;;;6.20;;
64520;SDS011;50896;46.714;17.322;2022-07-26T01:15:11;9.70;;;6.07;;
64520;SDS011;50896;46.714;17.322;2022-07-26T01:17:40;7.43;;;5.97;;
64520;SDS011;50896;46.714;17.322;2022-07-26T01:20:07;7.60;;;6.28;;
64520;SDS011;50896;46.714;17.322;2022-07-26T01:22:36;7.43;;;6.27;;
64520;SDS011;50896;46.714;17.322;2022-07-26T01:25:03;9.07;;;6.70;;
64520;SDS011;50896;46.714;17.322;2022-07-26T01:27:31;7.60;;;6.28;;
64520;SDS011;50896;46.714;17.322;2022-07-26T01:29:59;7.00;;;6.30;;
64520;SDS011;50896;46.714;17.322;2022-07-26T01:32:26;6.78;;;6.13;;
64520;SDS011;50896;46.714;17.322;2022-07-26T01:34:53;7.28;;;6.10;;
64520;SDS011;50896;46.714;17.322;2022-07-26T01:37:21;6.93;;;6.22;;
64520;SDS011;50896;46.714;17.322;2022-07-26T01:39:49;10.52;;;6.45;;
64520;SDS011;50896;46.714;17.322;2022-07-26T01:42:16;6.45;;;5.72;;
64520;SDS011;50896;46.714;17.322;2022-07-26T01:44:43;7.22;;;6.30;;
64520;SDS011;50896;46.714;17.322;2022-07-26T01:47:09;7.93;;;6.22;;
64520;SDS011;50896;46.714;17.322;2022-07-26T01:49:36;7.93;;;6.20;;
64520;SDS011;50896;46.714;17.322;2022-07-26T01:52:03;6.75;;;6.00;;
64520;SDS011;50896;46.714;17.322;2022-07-26T01:54:30;7.03;;;6.32;;
64520;SDS011;50896;46.714;17.322;2022-07-26T01:56:57;6.75;;;6.05;;
64520;SDS011;50896;46.714;17.322;2022-07-26T01:59:23;6.65;;;6.05;;
64520;SDS011;50896;46.714;17.322;2022-07-26T02:01:50;8.35;;;5.93;;
64520;SDS011;50896;46.714;17.322;2022-07-26T02:04:17;6.60;;;6.00;;
64520;SDS011;50896;46.714;17.322;2022-07-26T02:07:03;7.43;;;6.65;;
64520;SDS011;50896;46.714;17.322;2022-07-26T02:09:36;9.18;;;6.47;;
64520;SDS011;50896;46.714;17.322;2022-07-26T02:12:05;7.87;;;6.70;;
64520;SDS011;50896;46.714;17.322;2022-07-26T02:14:32;10.27;;;6.88;;
64520;SDS011;50896;46.714;17.322;2022-07-26T02:16:59;8.82;;;6.35;;
64520;SDS011;50896;46.714;17.322;2022-07-26T02:19:26;8.07;;;5.82;;
64520;SDS011;50896;46.714;17.322;2022-07-26T02:21:54;7.72;;;6.20;;
64520;SDS011;50896;46.714;17.322;2022-07-26T02:24:21;7.03;;;6.32;;
64520;SDS011;50896;46.714;17.322;2022-07-26T02:26:49;7.85;;;6.82;;
64520;SDS011;50896;46.714;17.322;2022-07-26T02:29:15;8.15;;;6.50;;
64520;SDS011;50896;46.714;17.322;2022-07-26T02:31:42;7.47;;;6.75;;
64520;SDS011;50896;46.714;17.322;2022-07-26T02:34:14;7.07;;;6.38;;
64520;SDS011;50896;46.714;17.322;2022-07-26T02:36:41;7.57;;;6.32;;
64520;SDS011;50896;46.714;17.322;2022-07-26T02:39:08;7.93;;;6.45;;
64520;SDS011;50896;46.714;17.322;2022-07-26T02:41:35;9.25;;;6.45;;
64520;SDS011;50896;46.714;17.322;2022-07-26T02:44:02;7.78;;;6.13;;
64520;SDS011;50896;46.714;17.322;2022-07-26T02:46:30;7.55;;;6.50;;
64520;SDS011;50896;46.714;17.322;2022-07-26T02:48:57;7.32;;;6.55;;
64520;SDS011;50896;46.714;17.322;2022-07-26T02:51:26;11.53;;;6.47;;
64520;SDS011;50896;46.714;17.322;2022-07-26T02:53:53;10.63;;;6.55;;
64520;SDS011;50896;46.714;17.322;2022-07-26T02:56:20;7.28;;;6.25;;
64520;SDS011;50896;46.714;17.322;2022-07-26T02:58:47;9.93;;;6.50;;
64520;SDS011;50896;46.714;17.322;2022-07-26T03:01:14;7.15;;;5.88;;
64520;SDS011;50896;46.714;17.322;2022-07-26T03:03:40;8.40;;;6.45;;
64520;SDS011;50896;46.714;17.322;2022-07-26T03:06:14;8.32;;;6.28;;
64520;SDS011;50896;46.714;17.322;2022-07-26T03:08:40;7.30;;;6.15;;
64520;SDS011;50896;46.714;17.322;2022-07-26T03:11:07;7.80;;;6.22;;
64520;SDS011;50896;46.714;17.322;2022-07-26T03:13:37;6.43;;;5.78;;
64520;SDS011;50896;46.714;17.322;2022-07-26T03:16:05;6.88;;;6.10;;
64520;SDS011;50896;46.714;17.322;2022-07-26T03:18:33;6.60;;;5.90;;
64520;SDS011;50896;46.714;17.322;2022-07-26T03:20:59;7.00;;;5.97;;
64520;SDS011;50896;46.714;17.322;2022-07-26T03:23:27;7.28;;;6.15;;
64520;SDS011;50896;46.714;17.322;2022-07-26T03:25:54;7.40;;;6.25;;
64520;SDS011;50896;46.714;17.322;2022-07-26T03:28:20;8.27;;;6.30;;
64520;SDS011;50896;46.714;17.322;2022-07-26T03:30:47;7.40;;;6.38;;
64520;SDS011;50896;46.714;17.322;2022-07-26T03:33:14;8.02;;;6.25;;
64520;SDS011;50896;46.714;17.322;2022-07-26T03:35:41;6.45;;;5.90;;
64520;SDS011;50896;46.714;17.322;2022-07-26T03:38:09;7.20;;;6.57;;
64520;SDS011;50896;46.714;17.322;2022-07-26T03:40:36;7.07;;;6.40;;
64520;SDS011;50896;46.714;17.322;2022-07-26T03:43:03;7.90;;;6.53;;
64520;SDS011;50896;46.714;17.322;2022-07-26T03:45:30;6.97;;;6.28;;
64520;SDS011;50896;46.714;17.322;2022-07-26T03:47:57;10.25;;;6.43;;
64520;SDS011;50896;46.714;17.322;2022-07-26T03:50:23;6.90;;;6.20;;
64520;SDS011;50896;46.714;17.322;2022-07-26T03:52:50;8.95;;;6.30;;
64520;SDS011;50896;46.714;17.322;2022-07-26T03:55:17;9.40;;;6.57;;
64520;SDS011;50896;46.714;17.322;2022-07-26T03:58:02;8.30;;;6.40;;
64520;SDS011;50896;46.714;17.322;2022-07-26T04:00:29;8.52;;;6.43;;
64520;SDS011;50896;46.714;17.322;2022-07-26T04:02:56;7.10;;;6.05;;
64520;SDS011;50896;46.714;17.322;2022-07-26T04:05:22;8.05;;;6.07;;
64520;SDS011;50896;46.714;17.322;2022-07-26T04:07:51;7.47;;;6.72;;
64520;SDS011;50896;46.714;17.322;2022-07-26T04:10:19;8.43;;;6.35;;
64520;SDS011;50896;46.714;17.322;2022-07-26T04:12:50;6.75;;;5.82;;
64520;SDS011;50896;46.714;17.322;2022-07-26T04:15:17;9.85;;;6.47;;
64520;SDS011;50896;46.714;17.322;2022-07-26T04:17:47;7.82;;;6.30;;
64520;SDS011;50896;46.714;17.322;2022-07-26T04:20:14;7.35;;;6.35;;
64520;SDS011;50896;46.714;17.322;2022-07-26T04:22:42;8.32;;;6.65;;
64520;SDS011;50896;46.714;17.322;2022-07-26T04:25:10;7.25;;;6.55;;
64520;SDS011;50896;46.714;17.322;2022-07-26T04:27:37;10.20;;;6.47;;
64520;SDS011;50896;46.714;17.322;2022-07-26T04:30:04;16.15;;;6.70;;
64520;SDS011;50896;46.714;17.322;2022-07-26T04:32:40;15.57;;;7.07;;
64520;SDS011;50896;46.714;17.322;2022-07-26T04:35:07;8.57;;;6.65;;
64520;SDS011;50896;46.714;17.322;2022-07-26T04:37:41;9.90;;;6.28;;
64520;SDS011;50896;46.714;17.322;2022-07-26T04:40:14;8.90;;;6.60;;
64520;SDS011;50896;46.714;17.322;2022-07-26T04:42:42;8.43;;;6.10;;
64520;SDS011;50896;46.714;17.322;2022-07-26T04:45:09;9.35;;;6.53;;
64520;SDS011;50896;46.714;17.322;2022-07-26T04:47:41;8.38;;;7.20;;
64520;SDS011;50896;46.714;17.322;2022-07-26T04:50:14;15.13;;;7.70;;
64520;SDS011;50896;46.714;17.322;2022-07-26T04:52:41;10.15;;;6.68;;
64520;SDS011;50896;46.714;17.322;2022-07-26T04:55:08;11.13;;;6.65;;
64520;SDS011;50896;46.714;17.322;2022-07-26T04:57:36;9.95;;;7.25;;
64520;SDS011;50896;46.714;17.322;2022-07-26T05:00:04;8.20;;;6.70;;
64520;SDS011;50896;46.714;17.322;2022-07-26T05:02:48;12.50;;;6.95;;
64520;SDS011;50896;46.714;17.322;2022-07-26T05:05:16;9.13;;;6.82;;
64520;SDS011;50896;46.714;17.322;2022-07-26T05:07:47;9.80;;;5.90;;
64520;SDS011;50896;46.714;17.322;2022-07-26T05:10:16;6.40;;;5.80;;
64520;SDS011;50896;46.714;17.322;2022-07-26T05:12:44;6.05;;;5.47;;
64520;SDS011;50896;46.714;17.322;2022-07-26T05:15:12;6.65;;;5.45;;
64520;SDS011;50896;46.714;17.322;2022-07-26T05:17:40;6.40;;;5.50;;
64520;SDS011;50896;46.714;17.322;2022-07-26T05:20:10;5.82;;;5.32;;
64520;SDS011;50896;46.714;17.322;2022-07-26T05:22:38;13.18;;;4.90;;
64520;SDS011;50896;46.714;17.322;2022-07-26T05:25:05;10.32;;;4.90;;
64520;SDS011;50896;46.714;17.322;2022-07-26T05:30:01;5.32;;;4.28;;
64520;SDS011;50896;46.714;17.322;2022-07-26T05:32:28;8.07;;;4.70;;
64520;SDS011;50896;46.714;17.322;2022-07-26T05:34:55;9.13;;;3.85;;
64520;SDS011;50896;46.714;17.322;2022-07-26T05:37:22;7.28;;;4.15;;
64520;SDS011;50896;46.714;17.322;2022-07-26T05:39:49;8.55;;;4.20;;
64520;SDS011;50896;46.714;17.322;2022-07-26T05:42:16;8.45;;;3.90;;
64520;SDS011;50896;46.714;17.322;2022-07-26T05:44:42;12.32;;;3.85;;
64520;SDS011;50896;46.714;17.322;2022-07-26T05:47:09;8.32;;;3.65;;
64520;SDS011;50896;46.714;17.322;2022-07-26T05:49:36;5.55;;;3.38;;
64520;SDS011;50896;46.714;17.322;2022-07-26T05:52:05;5.97;;;3.05;;
64520;SDS011;50896;46.714;17.322;2022-07-26T05:54:33;6.22;;;2.88;;
64520;SDS011;50896;46.714;17.322;2022-07-26T05:57:00;6.25;;;2.50;;
64520;SDS011;50896;46.714;17.322;2022-07-26T05:59:28;10.32;;;2.70;;
64520;SDS011;50896;46.714;17.322;2022-07-26T06:01:54;7.43;;;2.40;;
64520;SDS011;50896;46.714;17.322;2022-07-26T06:04:22;2.30;;;2.00;;
64520;SDS011;50896;46.714;17.322;2022-07-26T06:06:52;2.47;;;1.90;;
64520;SDS011;50896;46.714;17.322;2022-07-26T06:09:20;3.95;;;1.90;;
64520;SDS011;50896;46.714;17.322;2022-07-26T06:11:50;4.35;;;2.13;;
64520;SDS011;50896;46.714;17.322;2022-07-26T06:14:17;3.38;;;1.88;;
64520;SDS011;50896;46.714;17.322;2022-07-26T06:16:48;3.70;;;2.03;;
64520;SDS011;50896;46.714;17.322;2022-07-26T06:19:15;6.53;;;1.80;;
64520;SDS011;50896;46.714;17.322;2022-07-26T06:21:42;4.22;;;1.98;;
64520;SDS011;50896;46.714;17.322;2022-07-26T06:24:11;5.72;;;1.95;;
64520;SDS011;50896;46.714;17.322;2022-07-26T06:26:38;2.75;;;1.85;;
64520;SDS011;50896;46.714;17.322;2022-07-26T06:29:05;4.93;;;1.98;;
64520;SDS011;50896;46.714;17.322;2022-07-26T06:31:32;11.45;;;2.35;;
64520;SDS011;50896;46.714;17.322;2022-07-26T06:34:00;10.90;;;3.28;;
64520;SDS011;50896;46.714;17.322;2022-07-26T06:36:29;13.77;;;2.83;;
64520;SDS011;50896;46.714;17.322;2022-07-26T06:38:57;7.22;;;2.33;;
64520;SDS011;50896;46.714;17.322;2022-07-26T06:41:24;8.10;;;2.40;;
64520;SDS011;50896;46.714;17.322;2022-07-26T06:43:51;4.50;;;2.30;;
64520;SDS011;50896;46.714;17.322;2022-07-26T06:46:19;4.97;;;2.30;;
64520;SDS011;50896;46.714;17.322;2022-07-26T06:48:47;10.27;;;2.50;;
64520;SDS011;50896;46.714;17.322;2022-07-26T06:51:18;7.57;;;2.10;;
64520;SDS011;50896;46.714;17.322;2022-07-26T06:53:45;11.23;;;2.20;;
64520;SDS011;50896;46.714;17.322;2022-07-26T06:56:12;8.57;;;2.38;;
64520;SDS011;50896;46.714;17.322;2022-07-26T06:58:40;3.17;;;1.70;;
64520;SDS011;50896;46.714;17.322;2022-07-26T07:01:07;5.57;;;2.20;;
64520;SDS011;50896;46.714;17.322;2022-07-26T07:03:35;7.60;;;2.08;;
64520;SDS011;50896;46.714;17.322;2022-07-26T07:06:02;3.38;;;2.03;;
64520;SDS011;50896;46.714;17.322;2022-07-26T07:08:28;7.45;;;2.13;;
64520;SDS011;50896;46.714;17.322;2022-07-26T07:10:55;4.00;;;2.00;;
64520;SDS011;50896;46.714;17.322;2022-07-26T07:13:23;6.10;;;2.00;;
64520;SDS011;50896;46.714;17.322;2022-07-26T07:15:50;3.10;;;2.08;;
64520;SDS011;50896;46.714;17.322;2022-07-26T07:18:19;3.78;;;1.80;;
64520;SDS011;50896;46.714;17.322;2022-07-26T07:20:46;4.78;;;1.85;;
64520;SDS011;50896;46.714;17.322;2022-07-26T07:23:12;2.10;;;1.90;;
64520;SDS011;50896;46.714;17.322;2022-07-26T07:25:39;4.85;;;2.08;;
64520;SDS011;50896;46.714;17.322;2022-07-26T07:28:10;6.30;;;2.00;;
64520;SDS011;50896;46.714;17.322;2022-07-26T07:30:36;3.35;;;1.70;;
64520;SDS011;50896;46.714;17.322;2022-07-26T07:33:03;4.05;;;1.80;;
64520;SDS011;50896;46.714;17.322;2022-07-26T07:35:30;5.25;;;1.98;;
64520;SDS011;50896;46.714;17.322;2022-07-26T07:37:58;4.68;;;1.73;;
64520;SDS011;50896;46.714;17.322;2022-07-26T07:40:25;3.72;;;1.70;;
64520;SDS011;50896;46.714;17.322;2022-07-26T07:42:55;3.17;;;2.22;;
64520;SDS011;50896;46.714;17.322;2022-07-26T07:45:22;3.10;;;2.10;;
64520;SDS011;50896;46.714;17.322;2022-07-26T07:47:49;2.72;;;1.88;;
64520;SDS011;50896;46.714;17.322;2022-07-26T07:50:16;2.88;;;1.92;;
64520;SDS011;50896;46.714;17.322;2022-07-26T07:52:43;4.82;;;1.88;;
64520;SDS011;50896;46.714;17.322;2022-07-26T07:55:10;4.78;;;2.30;;
64520;SDS011;50896;46.714;17.322;2022-07-26T07:57:57;2.75;;;2.03;;
64520;SDS011;50896;46.714;17.322;2022-07-26T08:00:24;6.75;;;2.40;;
64520;SDS011;50896;46.714;17.322;2022-07-26T08:02:52;4.93;;;2.20;;
64520;SDS011;50896;46.714;17.322;2022-07-26T08:05:20;4.88;;;2.42;;
64520;SDS011;50896;46.714;17.322;2022-07-26T08:07:48;3.75;;;2.10;;
64520;SDS011;50896;46.714;17.322;2022-07-26T08:10:17;4.68;;;2.15;;
64520;SDS011;50896;46.714;17.322;2022-07-26T08:12:45;4.82;;;2.00;;
64520;SDS011;50896;46.714;17.322;2022-07-26T08:15:16;3.95;;;2.05;;
64520;SDS011;50896;46.714;17.322;2022-07-26T08:17:46;2.60;;;2.10;;
64520;SDS011;50896;46.714;17.322;2022-07-26T08:20:20;5.57;;;2.03;;
64520;SDS011;50896;46.714;17.322;2022-07-26T08:22:50;3.53;;;2.15;;
64520;SDS011;50896;46.714;17.322;2022-07-26T08:25:19;2.30;;;2.10;;
64520;SDS011;50896;46.714;17.322;2022-07-26T08:27:46;4.40;;;2.35;;
64520;SDS011;50896;46.714;17.322;2022-07-26T08:30:29;4.47;;;2.20;;
64520;SDS011;50896;46.714;17.322;2022-07-26T08:32:56;2.78;;;2.22;;
64520;SDS011;50896;46.714;17.322;2022-07-26T08:35:23;3.03;;;2.20;;
64520;SDS011;50896;46.714;17.322;2022-07-26T08:37:50;2.88;;;2.30;;
64520;SDS011;50896;46.714;17.322;2022-07-26T08:40:17;4.20;;;2.20;;
64520;SDS011;50896;46.714;17.322;2022-07-26T08:42:50;4.47;;;2.03;;
64520;SDS011;50896;46.714;17.322;2022-07-26T08:45:25;3.08;;;2.40;;
64520;SDS011;50896;46.714;17.322;2022-07-26T08:47:54;4.25;;;2.38;;
64520;SDS011;50896;46.714;17.322;2022-07-26T08:50:42;3.55;;;2.17;;
64520;SDS011;50896;46.714;17.322;2022-07-26T08:53:09;3.92;;;2.33;;
64520;SDS011;50896;46.714;17.322;2022-07-26T08:55:38;3.38;;;2.20;;
64520;SDS011;50896;46.714;17.322;2022-07-26T08:58:25;4.03;;;2.40;;
64520;SDS011;50896;46.714;17.322;2022-07-26T09:01:05;2.90;;;2.50;;
64520;SDS011;50896;46.714;17.322;2022-07-26T09:03:39;4.90;;;2.58;;
64520;SDS011;50896;46.714;17.322;2022-07-26T09:08:41;4.15;;;2.90;;
64520;SDS011;50896;46.714;17.322;2022-07-26T09:11:24;3.90;;;2.70;;
64520;SDS011;50896;46.714;17.322;2022-07-26T09:13:54;4.50;;;3.20;;
64520;SDS011;50896;46.714;17.322;2022-07-26T09:16:23;4.80;;;3.63;;
64520;SDS011;50896;46.714;17.322;2022-07-26T09:18:51;3.85;;;3.45;;
64520;SDS011;50896;46.714;17.322;2022-07-26T09:21:25;6.70;;;3.83;;
64520;SDS011;50896;46.714;17.322;2022-07-26T09:24:04;3.85;;;3.50;;
64520;SDS011;50896;46.714;17.322;2022-07-26T09:26:31;4.38;;;3.47;;
64520;SDS011;50896;46.714;17.322;2022-07-26T09:29:06;4.38;;;3.55;;
64520;SDS011;50896;46.714;17.322;2022-07-26T09:31:37;4.68;;;3.90;;
64520;SDS011;50896;46.714;17.322;2022-07-26T09:34:05;5.30;;;4.07;;
64520;SDS011;50896;46.714;17.322;2022-07-26T09:36:36;7.57;;;4.20;;
64520;SDS011;50896;46.714;17.322;2022-07-26T09:39:15;6.38;;;3.90;;
64520;SDS011;50896;46.714;17.322;2022-07-26T09:41:42;5.22;;;3.88;;
64520;SDS011;50896;46.714;17.322;2022-07-26T09:44:19;5.15;;;3.35;;
64520;SDS011;50896;46.714;17.322;2022-07-26T09:46:55;5.38;;;3.63;;
64520;SDS011;50896;46.714;17.322;2022-07-26T09:49:24;5.32;;;3.45;;
64520;SDS011;50896;46.714;17.322;2022-07-26T09:52:27;4.97;;;3.40;;
64520;SDS011;50896;46.714;17.322;2022-07-26T09:54:52;3.92;;;3.20;;
64520;SDS011;50896;46.714;17.322;2022-07-26T09:57:19;6.47;;;3.22;;
64520;SDS011;50896;46.714;17.322;2022-07-26T09:59:46;5.35;;;3.38;;
64520;SDS011;50896;46.714;17.322;2022-07-26T10:02:13;7.50;;;3.60;;
64520;SDS011;50896;46.714;17.322;2022-07-26T10:04:40;7.07;;;3.40;;
64520;SDS011;50896;46.714;17.322;2022-07-26T10:07:08;6.03;;;3.08;;
64520;SDS011;50896;46.714;17.322;2022-07-26T10:09:38;4.03;;;2.63;;
64520;SDS011;50896;46.714;17.322;2022-07-26T10:12:12;3.03;;;2.40;;
64520;SDS011;50896;46.714;17.322;2022-07-26T10:14:42;4.25;;;2.45;;
64520;SDS011;50896;46.714;17.322;2022-07-26T10:17:56;4.78;;;2.40;;
64520;SDS011;50896;46.714;17.322;2022-07-26T10:20:10;3.42;;;2.15;;
64520;SDS011;50896;46.714;17.322;2022-07-26T10:23:54;6.22;;;2.25;;
64520;SDS011;50896;46.714;17.322;2022-07-26T10:26:10;5.60;;;2.65;;
64520;SDS011;50896;46.714;17.322;2022-07-26T10:31:43;3.50;;;2.40;;
64520;SDS011;50896;46.714;17.322;2022-07-26T10:34:28;2.78;;;2.47;;
64520;SDS011;50896;46.714;17.322;2022-07-26T10:37:01;4.07;;;2.60;;
64520;SDS011;50896;46.714;17.322;2022-07-26T10:39:30;7.35;;;2.60;;
64520;SDS011;50896;46.714;17.322;2022-07-26T10:42:04;4.78;;;2.88;;
64520;SDS011;50896;46.714;17.322;2022-07-26T10:44:34;7.22;;;3.00;;
64520;SDS011;50896;46.714;17.322;2022-07-26T10:57:25;3.50;;;3.00;;
64520;SDS011;50896;46.714;17.322;2022-07-26T11:00:16;5.13;;;3.40;;
64520;SDS011;50896;46.714;17.322;2022-07-26T11:02:51;4.13;;;3.40;;
64520;SDS011;50896;46.714;17.322;2022-07-26T11:05:21;9.38;;;3.83;;
64520;SDS011;50896;46.714;17.322;2022-07-26T11:07:55;6.10;;;3.80;;
64520;SDS011;50896;46.714;17.322;2022-07-26T11:10:40;5.53;;;3.63;;
64520;SDS011;50896;46.714;17.322;2022-07-26T11:13:09;6.03;;;4.10;;
64520;SDS011;50896;46.714;17.322;2022-07-26T11:15:39;5.20;;;4.32;;
64520;SDS011;50896;46.714;17.322;2022-07-26T11:18:12;5.00;;;3.90;;
64520;SDS011;50896;46.714;17.322;2022-07-26T11:20:44;9.48;;;3.92;;
64520;SDS011;50896;46.714;17.322;2022-07-26T11:28:49;7.70;;;4.97;;
64520;SDS011;50896;46.714;17.322;2022-07-26T11:31:20;6.35;;;4.95;;
64520;SDS011;50896;46.714;17.322;2022-07-26T11:34:16;7.10;;;4.78;;
64520;SDS011;50896;46.714;17.322;2022-07-26T11:36:44;9.05;;;4.80;;
64520;SDS011;50896;46.714;17.322;2022-07-26T11:39:19;5.07;;;4.47;;
64520;SDS011;50896;46.714;17.322;2022-07-26T11:41:48;6.40;;;5.15;;
64520;SDS011;50896;46.714;17.322;2022-07-26T11:44:19;7.10;;;4.88;;
64520;SDS011;50896;46.714;17.322;2022-07-26T11:46:48;7.35;;;4.90;;
64520;SDS011;50896;46.714;17.322;2022-07-26T11:49:17;7.50;;;5.13;;
64520;SDS011;50896;46.714;17.322;2022-07-26T11:52:08;6.13;;;5.15;;
64520;SDS011;50896;46.714;17.322;2022-07-26T11:57:17;7.47;;;5.55;;
64520;SDS011;50896;46.714;17.322;2022-07-26T11:59:45;8.73;;;6.25;;
64520;SDS011;50896;46.714;17.322;2022-07-26T12:02:13;7.67;;;6.93;;
64520;SDS011;50896;46.714;17.322;2022-07-26T12:04:41;7.30;;;6.55;;
64520;SDS011;50896;46.714;17.322;2022-07-26T12:07:14;7.07;;;6.38;;
64520;SDS011;50896;46.714;17.322;2022-07-26T12:12:23;8.93;;;7.20;;
64520;SDS011;50896;46.714;17.322;2022-07-26T12:17:24;10.98;;;7.68;;
64520;SDS011;50896;46.714;17.322;2022-07-26T12:20:13;7.90;;;7.10;;
64520;SDS011;50896;46.714;17.322;2022-07-26T12:25:39;9.25;;;7.55;;
64520;SDS011;50896;46.714;17.322;2022-07-26T12:28:15;9.82;;;6.85;;
64520;SDS011;50896;46.714;17.322;2022-07-26T12:31:02;8.65;;;6.90;;
64520;SDS011;50896;46.714;17.322;2022-07-26T12:33:29;7.60;;;6.85;;
64520;SDS011;50896;46.714;17.322;2022-07-26T12:35:56;7.00;;;6.00;;
64520;SDS011;50896;46.714;17.322;2022-07-26T12:38:39;8.00;;;5.20;;
64520;SDS011;50896;46.714;17.322;2022-07-26T12:43:39;7.10;;;5.00;;
64520;SDS011;50896;46.714;17.322;2022-07-26T12:46:06;12.73;;;6.68;;
64520;SDS011;50896;46.714;17.322;2022-07-26T12:48:34;5.03;;;4.53;;
64520;SDS011;50896;46.714;17.322;2022-07-26T12:51:02;7.88;;;4.95;;
64520;SDS011;50896;46.714;17.322;2022-07-26T12:53:30;5.05;;;4.55;;
64520;SDS011;50896;46.714;17.322;2022-07-26T12:56:01;7.13;;;5.25;;
64520;SDS011;50896;46.714;17.322;2022-07-26T12:58:28;5.45;;;4.95;;
64520;SDS011;50896;46.714;17.322;2022-07-26T13:00:54;7.05;;;5.00;;
64520;SDS011;50896;46.714;17.322;2022-07-26T13:03:21;5.35;;;4.72;;
64520;SDS011;50896;46.714;17.322;2022-07-26T13:05:48;6.07;;;5.13;;
64520;SDS011;50896;46.714;17.322;2022-07-26T13:08:15;5.30;;;4.80;;
64520;SDS011;50896;46.714;17.322;2022-07-26T13:10:42;6.07;;;4.95;;
64520;SDS011;50896;46.714;17.322;2022-07-26T13:13:08;5.60;;;4.70;;
64520;SDS011;50896;46.714;17.322;2022-07-26T13:15:35;7.88;;;4.63;;
64520;SDS011;50896;46.714;17.322;2022-07-26T13:18:06;5.65;;;4.28;;
64520;SDS011;50896;46.714;17.322;2022-07-26T13:20:37;5.55;;;4.35;;
64520;SDS011;50896;46.714;17.322;2022-07-26T13:23:04;4.75;;;4.15;;
64520;SDS011;50896;46.714;17.322;2022-07-26T13:25:36;5.97;;;4.90;;
64520;SDS011;50896;46.714;17.322;2022-07-26T13:28:06;5.22;;;4.28;;
64520;SDS011;50896;46.714;17.322;2022-07-26T13:30:37;5.88;;;4.40;;
64520;SDS011;50896;46.714;17.322;2022-07-26T13:33:06;6.68;;;4.63;;
64520;SDS011;50896;46.714;17.322;2022-07-26T13:35:33;4.88;;;4.22;;
64520;SDS011;50896;46.714;17.322;2022-07-26T13:38:01;4.20;;;3.67;;
64520;SDS011;50896;46.714;17.322;2022-07-26T13:40:28;4.65;;;4.25;;
64520;SDS011;50896;46.714;17.322;2022-07-26T13:42:57;5.93;;;3.97;;
64520;SDS011;50896;46.714;17.322;2022-07-26T13:45:24;4.82;;;4.00;;
64520;SDS011;50896;46.714;17.322;2022-07-26T13:47:55;4.15;;;3.75;;
64520;SDS011;50896;46.714;17.322;2022-07-26T13:50:25;6.00;;;4.20;;
64520;SDS011;50896;46.714;17.322;2022-07-26T13:52:54;4.30;;;3.60;;
64520;SDS011;50896;46.714;17.322;2022-07-26T13:55:22;5.40;;;4.32;;
64520;SDS011;50896;46.714;17.322;2022-07-26T13:57:49;4.65;;;4.20;;
64520;SDS011;50896;46.714;17.322;2022-07-26T14:00:25;5.82;;;4.30;;
64520;SDS011;50896;46.714;17.322;2022-07-26T14:02:54;6.20;;;4.25;;
64520;SDS011;50896;46.714;17.322;2022-07-26T14:05:23;7.40;;;4.60;;
64520;SDS011;50896;46.714;17.322;2022-07-26T14:07:50;6.45;;;4.20;;
64520;SDS011;50896;46.714;17.322;2022-07-26T14:10:17;4.90;;;4.03;;
64520;SDS011;50896;46.714;17.322;2022-07-26T14:12:45;5.38;;;3.90;;
64520;SDS011;50896;46.714;17.322;2022-07-26T14:15:13;5.78;;;4.43;;
64520;SDS011;50896;46.714;17.322;2022-07-26T14:17:47;6.78;;;4.60;;
64520;SDS011;50896;46.714;17.322;2022-07-26T14:20:13;6.20;;;4.35;;
64520;SDS011;50896;46.714;17.322;2022-07-26T14:22:42;4.68;;;4.20;;
64520;SDS011;50896;46.714;17.322;2022-07-26T14:25:10;4.88;;;4.00;;
64520;SDS011;50896;46.714;17.322;2022-07-26T14:27:37;6.70;;;4.57;;
64520;SDS011;50896;46.714;17.322;2022-07-26T14:30:04;6.32;;;4.13;;
64520;SDS011;50896;46.714;17.322;2022-07-26T14:32:31;6.43;;;4.72;;
64520;SDS011;50896;46.714;17.322;2022-07-26T14:34:58;5.47;;;4.20;;
64520;SDS011;50896;46.714;17.322;2022-07-26T14:37:25;5.25;;;4.28;;
64520;SDS011;50896;46.714;17.322;2022-07-26T14:40:11;6.68;;;4.90;;
64520;SDS011;50896;46.714;17.322;2022-07-26T14:42:39;7.57;;;4.73;;
64520;SDS011;50896;46.714;17.322;2022-07-26T14:45:06;5.22;;;4.72;;
64520;SDS011;50896;46.714;17.322;2022-07-26T14:47:34;6.93;;;4.82;;
64520;SDS011;50896;46.714;17.322;2022-07-26T14:50:02;4.72;;;4.22;;
64520;SDS011;50896;46.714;17.322;2022-07-26T14:52:33;4.95;;;4.30;;
64520;SDS011;50896;46.714;17.322;2022-07-26T14:55:02;6.10;;;4.90;;
64520;SDS011;50896;46.714;17.322;2022-07-26T14:57:29;6.75;;;4.85;;
64520;SDS011;50896;46.714;17.322;2022-07-26T14:59:55;5.10;;;4.57;;
64520;SDS011;50896;46.714;17.322;2022-07-26T15:02:22;6.53;;;5.20;;
64520;SDS011;50896;46.714;17.322;2022-07-26T15:04:49;8.10;;;5.00;;
64520;SDS011;50896;46.714;17.322;2022-07-26T15:07:17;6.03;;;4.68;;
64520;SDS011;50896;46.714;17.322;2022-07-26T15:09:44;5.25;;;4.75;;
64520;SDS011;50896;46.714;17.322;2022-07-26T15:12:10;5.05;;;4.50;;
64520;SDS011;50896;46.714;17.322;2022-07-26T15:14:37;8.15;;;4.80;;
64520;SDS011;50896;46.714;17.322;2022-07-26T15:17:04;8.70;;;5.40;;
64520;SDS011;50896;46.714;17.322;2022-07-26T15:19:31;7.43;;;4.88;;
64520;SDS011;50896;46.714;17.322;2022-07-26T15:22:00;6.15;;;4.75;;
64520;SDS011;50896;46.714;17.322;2022-07-26T15:24:27;6.60;;;5.18;;